sensor_id;sensor_type;location;lat;lon;timestamp;pressure;altitude;pressure_sealevel;temperature;humidity
43420;BME280;29017;51.514;-0.178;2023-07-02T00:01:23;100567.09;;;19.81;62.66
43420;BME280;29017;51.514;-0.178;2023-07-02T00:03:50;100566.53;;;19.79;63.12
43420;BME280;29017;51.514;-0.178;2023-07-02T00:06:18;100568.97;;;19.81;63.12
43420;BME280;29017;51.514;-0.178;2023-07-02T00:08:45;100570.00;;;19.80;63.46
43420;BME280;29017;51.514;-0.178;2023-07-02T00:11:15;100575.78;;;19.77;63.80
43420;BME280;29017;51.514;-0.178;2023-07-02T00:13:42;100570.88;;;19.74;63.86
43420;BME280;29017;51.514;-0.178;2023-07-02T00:16:10;100573.19;;;19.70;64.01
43420;BME280;29017;51.514;-0.178;2023-07-02T00:18:37;100574.41;;;19.68;64.12
43420;BME280;29017;51.514;-0.178;2023-07-02T00:21:05;100569.53;;;19.64;63.81
43420;BME280;29017;51.514;-0.178;2023-07-02T00:23:33;100570.19;;;19.60;63.71
43420;BME280;29017;51.514;-0.178;2023-07-02T00:26:00;100573.06;;;19.58;63.56
43420;BME280;29017;51.514;-0.178;2023-07-02T00:28:28;100571.41;;;19.57;63.53
43420;BME280;29017;51.514;-0.178;2023-07-02T00:30:55;100576.19;;;19.55;63.74
43420;BME280;29017;51.514;-0.178;2023-07-02T00:33:22;100564.88;;;19.53;64.16
43420;BME280;29017;51.514;-0.178;2023-07-02T00:35:51;100573.09;;;19.52;64.20
43420;BME280;29017;51.514;-0.178;2023-07-02T00:38:18;100569.44;;;19.46;64.74
43420;BME280;29017;51.514;-0.178;2023-07-02T00:40:46;100567.19;;;19.43;64.23
43420;BME280;29017;51.514;-0.178;2023-07-02T00:43:14;100573.19;;;19.39;63.97
43420;BME280;29017;51.514;-0.178;2023-07-02T00:45:41;100578.28;;;19.40;63.93
43420;BME280;29017;51.514;-0.178;2023-07-02T00:48:09;100570.94;;;19.36;63.95
43420;BME280;29017;51.514;-0.178;2023-07-02T00:50:37;100575.06;;;19.32;63.77
43420;BME280;29017;51.514;-0.178;2023-07-02T00:53:04;100575.53;;;19.29;63.19
43420;BME280;29017;51.514;-0.178;2023-07-02T00:55:32;100571.22;;;19.28;63.62
43420;BME280;29017;51.514;-0.178;2023-07-02T00:57:59;100578.03;;;19.23;62.89
43420;BME280;29017;51.514;-0.178;2023-07-02T01:00:27;100574.34;;;19.18;63.58
43420;BME280;29017;51.514;-0.178;2023-07-02T01:02:56;100575.00;;;19.13;63.42
43420;BME280;29017;51.514;-0.178;2023-07-02T01:05:27;100576.84;;;19.13;63.43
43420;BME280;29017;51.514;-0.178;2023-07-02T01:07:59;100583.41;;;19.10;63.06
43420;BME280;29017;51.514;-0.178;2023-07-02T01:10:27;100592.03;;;19.12;63.66
43420;BME280;29017;51.514;-0.178;2023-07-02T01:12:55;100591.22;;;19.12;63.71
43420;BME280;29017;51.514;-0.178;2023-07-02T01:15:22;100591.41;;;19.10;63.95
43420;BME280;29017;51.514;-0.178;2023-07-02T01:17:51;100593.28;;;19.10;64.50
43420;BME280;29017;51.514;-0.178;2023-07-02T01:20:20;100593.28;;;19.10;64.49
43420;BME280;29017;51.514;-0.178;2023-07-02T01:22:49;100597.19;;;19.07;64.61
43420;BME280;29017;51.514;-0.178;2023-07-02T01:25:18;100601.91;;;19.05;65.01
43420;BME280;29017;51.514;-0.178;2023-07-02T01:27:46;100592.88;;;19.06;65.71
43420;BME280;29017;51.514;-0.178;2023-07-02T01:30:13;100594.34;;;19.02;65.81
43420;BME280;29017;51.514;-0.178;2023-07-02T01:32:41;100604.03;;;18.97;66.29
43420;BME280;29017;51.514;-0.178;2023-07-02T01:35:09;100599.72;;;18.96;66.92
43420;BME280;29017;51.514;-0.178;2023-07-02T01:37:36;100604.03;;;18.97;67.78
43420;BME280;29017;51.514;-0.178;2023-07-02T01:40:05;100601.34;;;18.97;68.27
43420;BME280;29017;51.514;-0.178;2023-07-02T01:42:33;100609.63;;;18.89;68.83
43420;BME280;29017;51.514;-0.178;2023-07-02T01:45:01;100605.13;;;18.83;69.07
43420;BME280;29017;51.514;-0.178;2023-07-02T01:47:28;100605.53;;;18.79;69.07
43420;BME280;29017;51.514;-0.178;2023-07-02T01:49:55;100611.09;;;18.78;69.36
43420;BME280;29017;51.514;-0.178;2023-07-02T01:52:23;100607.81;;;18.76;69.46
43420;BME280;29017;51.514;-0.178;2023-07-02T01:54:50;100600.25;;;18.73;69.17
43420;BME280;29017;51.514;-0.178;2023-07-02T01:57:19;100614.41;;;18.73;69.99
43420;BME280;29017;51.514;-0.178;2023-07-02T01:59:47;100608.00;;;18.74;69.39
43420;BME280;29017;51.514;-0.178;2023-07-02T02:02:14;100605.56;;;18.73;69.22
43420;BME280;29017;51.514;-0.178;2023-07-02T02:04:41;100603.13;;;18.71;69.48
43420;BME280;29017;51.514;-0.178;2023-07-02T02:07:09;100605.16;;;18.69;68.91
43420;BME280;29017;51.514;-0.178;2023-07-02T02:09:36;100602.72;;;18.68;69.09
43420;BME280;29017;51.514;-0.178;2023-07-02T02:12:04;100604.78;;;18.66;68.94
43420;BME280;29017;51.514;-0.178;2023-07-02T02:14:32;100608.69;;;18.63;68.60
43420;BME280;29017;51.514;-0.178;2023-07-02T02:16:59;100615.25;;;18.61;68.36
43420;BME280;29017;51.514;-0.178;2023-07-02T02:19:29;100614.88;;;18.57;68.11
43420;BME280;29017;51.514;-0.178;2023-07-02T02:21:56;100608.91;;;18.55;68.17
43420;BME280;29017;51.514;-0.178;2023-07-02T02:24:24;100615.47;;;18.53;69.05
43420;BME280;29017;51.514;-0.178;2023-07-02T02:26:51;100614.84;;;18.51;68.08
43420;BME280;29017;51.514;-0.178;2023-07-02T02:29:19;100618.13;;;18.46;67.48
43420;BME280;29017;51.514;-0.178;2023-07-02T02:31:46;100618.56;;;18.43;67.16
43420;BME280;29017;51.514;-0.178;2023-07-02T02:34:14;100612.00;;;18.39;67.02
43420;BME280;29017;51.514;-0.178;2023-07-02T02:36:41;100614.88;;;18.37;66.71
43420;BME280;29017;51.514;-0.178;2023-07-02T02:39:09;100616.94;;;18.35;66.40
43420;BME280;29017;51.514;-0.178;2023-07-02T02:41:36;100620.03;;;18.32;66.74
43420;BME280;29017;51.514;-0.178;2023-07-02T02:44:04;100623.09;;;18.29;66.68
43420;BME280;29017;51.514;-0.178;2023-07-02T02:46:31;100621.69;;;18.27;66.81
43420;BME280;29017;51.514;-0.178;2023-07-02T02:48:59;100621.69;;;18.20;66.60
43420;BME280;29017;51.514;-0.178;2023-07-02T02:51:26;100621.28;;;18.17;66.26
43420;BME280;29017;51.514;-0.178;2023-07-02T02:53:53;100629.06;;;18.12;66.65
43420;BME280;29017;51.514;-0.178;2023-07-02T02:56:21;100623.94;;;18.10;66.57
43420;BME280;29017;51.514;-0.178;2023-07-02T02:58:48;100628.06;;;18.06;66.71
43420;BME280;29017;51.514;-0.178;2023-07-02T03:01:16;100636.25;;;18.05;66.20
43420;BME280;29017;51.514;-0.178;2023-07-02T03:03:43;100628.88;;;18.00;66.41
43420;BME280;29017;51.514;-0.178;2023-07-02T03:06:13;100625.00;;;17.96;66.32
43420;BME280;29017;51.514;-0.178;2023-07-02T03:08:42;100625.38;;;17.93;67.06
43420;BME280;29017;51.514;-0.178;2023-07-02T03:11:10;100627.03;;;17.94;67.32
43420;BME280;29017;51.514;-0.178;2023-07-02T03:13:37;100625.81;;;17.90;67.18
43420;BME280;29017;51.514;-0.178;2023-07-02T03:16:05;100634.22;;;17.87;67.12
43420;BME280;29017;51.514;-0.178;2023-07-02T03:18:33;100631.56;;;17.87;67.08
43420;BME280;29017;51.514;-0.178;2023-07-02T03:21:01;100631.75;;;17.85;66.87
43420;BME280;29017;51.514;-0.178;2023-07-02T03:23:28;100624.78;;;17.84;67.46
43420;BME280;29017;51.514;-0.178;2023-07-02T03:25:56;100635.22;;;17.86;67.63
43420;BME280;29017;51.514;-0.178;2023-07-02T03:28:23;100639.75;;;17.85;67.38
43420;BME280;29017;51.514;-0.178;2023-07-02T03:30:51;100633.59;;;17.85;67.63
43420;BME280;29017;51.514;-0.178;2023-07-02T03:33:18;100640.75;;;17.84;67.56
43420;BME280;29017;51.514;-0.178;2023-07-02T03:35:46;100636.25;;;17.85;67.35
43420;BME280;29017;51.514;-0.178;2023-07-02T03:38:14;100637.50;;;17.82;67.26
43420;BME280;29017;51.514;-0.178;2023-07-02T03:40:42;100635.22;;;17.79;67.96
43420;BME280;29017;51.514;-0.178;2023-07-02T03:43:10;100641.19;;;17.81;67.77
43420;BME280;29017;51.514;-0.178;2023-07-02T03:45:37;100639.94;;;17.77;67.89
43420;BME280;29017;51.514;-0.178;2023-07-02T03:48:05;100639.13;;;17.77;68.38
43420;BME280;29017;51.514;-0.178;2023-07-02T03:50:32;100641.78;;;17.77;68.85
43420;BME280;29017;51.514;-0.178;2023-07-02T03:52:59;100646.28;;;17.76;68.86
43420;BME280;29017;51.514;-0.178;2023-07-02T03:55:27;100650.78;;;17.76;69.59
43420;BME280;29017;51.514;-0.178;2023-07-02T03:57:54;100655.72;;;17.72;68.91
43420;BME280;29017;51.514;-0.178;2023-07-02T04:00:22;100649.75;;;17.70;69.41
43420;BME280;29017;51.514;-0.178;2023-07-02T04:02:49;100651.19;;;17.66;69.02
43420;BME280;29017;51.514;-0.178;2023-07-02T04:05:16;100650.19;;;17.67;69.91
43420;BME280;29017;51.514;-0.178;2023-07-02T04:07:44;100653.63;;;17.68;70.25
43420;BME280;29017;51.514;-0.178;2023-07-02T04:10:11;100656.09;;;17.69;70.17
43420;BME280;29017;51.514;-0.178;2023-07-02T04:12:38;100663.91;;;17.71;70.54
43420;BME280;29017;51.514;-0.178;2023-07-02T04:15:07;100654.69;;;17.67;70.79
43420;BME280;29017;51.514;-0.178;2023-07-02T04:17:35;100647.91;;;17.64;70.82
43420;BME280;29017;51.514;-0.178;2023-07-02T04:20:03;100653.44;;;17.63;71.12
43420;BME280;29017;51.514;-0.178;2023-07-02T04:22:31;100656.66;;;17.58;72.30
43420;BME280;29017;51.514;-0.178;2023-07-02T04:24:58;100656.88;;;17.57;72.58
43420;BME280;29017;51.514;-0.178;2023-07-02T04:27:36;100665.06;;;17.55;72.11
43420;BME280;29017;51.514;-0.178;2023-07-02T04:30:17;100668.56;;;17.56;72.12
43420;BME280;29017;51.514;-0.178;2023-07-02T04:32:44;100677.13;;;17.58;71.96
43420;BME280;29017;51.514;-0.178;2023-07-02T04:35:11;100674.13;;;17.61;72.53
43420;BME280;29017;51.514;-0.178;2023-07-02T04:37:39;100676.13;;;17.59;72.51
43420;BME280;29017;51.514;-0.178;2023-07-02T04:40:07;100675.97;;;17.60;72.29
43420;BME280;29017;51.514;-0.178;2023-07-02T04:42:39;100674.69;;;17.56;71.87
43420;BME280;29017;51.514;-0.178;2023-07-02T04:45:07;100675.69;;;17.48;72.26
43420;BME280;29017;51.514;-0.178;2023-07-02T04:47:35;100673.44;;;17.45;72.23
43420;BME280;29017;51.514;-0.178;2023-07-02T04:50:04;100681.41;;;17.45;72.09
43420;BME280;29017;51.514;-0.178;2023-07-02T04:52:32;100677.94;;;17.45;72.39
43420;BME280;29017;51.514;-0.178;2023-07-02T04:55:00;100679.16;;;17.42;72.28
43420;BME280;29017;51.514;-0.178;2023-07-02T04:57:27;100678.34;;;17.42;71.93
43420;BME280;29017;51.514;-0.178;2023-07-02T04:59:55;100691.03;;;17.40;71.87
43420;BME280;29017;51.514;-0.178;2023-07-02T05:02:23;100693.50;;;17.41;71.78
43420;BME280;29017;51.514;-0.178;2023-07-02T05:04:50;100690.59;;;17.43;72.38
43420;BME280;29017;51.514;-0.178;2023-07-02T05:07:18;100695.75;;;17.44;72.25
43420;BME280;29017;51.514;-0.178;2023-07-02T05:09:45;100701.88;;;17.45;71.39
43420;BME280;29017;51.514;-0.178;2023-07-02T05:12:13;100699.03;;;17.46;71.00
43420;BME280;29017;51.514;-0.178;2023-07-02T05:14:40;100696.56;;;17.45;71.08
43420;BME280;29017;51.514;-0.178;2023-07-02T05:17:07;100691.88;;;17.47;70.98
43420;BME280;29017;51.514;-0.178;2023-07-02T05:19:35;100707.63;;;17.48;70.90
43420;BME280;29017;51.514;-0.178;2023-07-02T05:22:03;100704.34;;;17.46;70.50
43420;BME280;29017;51.514;-0.178;2023-07-02T05:24:30;100704.97;;;17.42;70.39
43420;BME280;29017;51.514;-0.178;2023-07-02T05:26:57;100707.19;;;17.38;70.64
43420;BME280;29017;51.514;-0.178;2023-07-02T05:29:25;100705.34;;;17.39;70.70
43420;BME280;29017;51.514;-0.178;2023-07-02T05:31:52;100708.63;;;17.41;70.95
43420;BME280;29017;51.514;-0.178;2023-07-02T05:34:20;100710.06;;;17.43;70.15
43420;BME280;29017;51.514;-0.178;2023-07-02T05:36:47;100709.44;;;17.48;70.26
43420;BME280;29017;51.514;-0.178;2023-07-02T05:39:15;100708.63;;;17.47;69.86
43420;BME280;29017;51.514;-0.178;2023-07-02T05:41:42;100713.53;;;17.44;69.66
43420;BME280;29017;51.514;-0.178;2023-07-02T05:44:10;100713.53;;;17.44;69.43
43420;BME280;29017;51.514;-0.178;2023-07-02T05:46:37;100718.03;;;17.43;69.79
43420;BME280;29017;51.514;-0.178;2023-07-02T05:49:04;100717.03;;;17.44;70.19
43420;BME280;29017;51.514;-0.178;2023-07-02T05:51:33;100711.28;;;17.47;69.89
43420;BME280;29017;51.514;-0.178;2023-07-02T05:54:00;100710.50;;;17.53;69.02
43420;BME280;29017;51.514;-0.178;2023-07-02T05:56:27;100712.53;;;17.58;69.16
43420;BME280;29017;51.514;-0.178;2023-07-02T05:58:55;100714.03;;;17.61;69.27
43420;BME280;29017;51.514;-0.178;2023-07-02T06:01:22;100718.75;;;17.65;68.34
43420;BME280;29017;51.514;-0.178;2023-07-02T06:03:50;100716.09;;;17.72;68.32
43420;BME280;29017;51.514;-0.178;2023-07-02T06:06:18;100724.69;;;17.74;67.81
43420;BME280;29017;51.514;-0.178;2023-07-02T06:08:45;100724.09;;;17.78;67.58
43420;BME280;29017;51.514;-0.178;2023-07-02T06:11:13;100729.44;;;17.85;67.21
43420;BME280;29017;51.514;-0.178;2023-07-02T06:13:40;100725.56;;;17.87;67.72
43420;BME280;29017;51.514;-0.178;2023-07-02T06:16:08;100732.53;;;18.02;67.19
43420;BME280;29017;51.514;-0.178;2023-07-02T06:18:36;100734.78;;;18.11;65.83
43420;BME280;29017;51.514;-0.178;2023-07-02T06:21:04;100736.00;;;18.15;66.06
43420;BME280;29017;51.514;-0.178;2023-07-02T06:23:42;100731.31;;;18.11;64.69
43420;BME280;29017;51.514;-0.178;2023-07-02T06:26:10;100733.34;;;18.09;64.91
43420;BME280;29017;51.514;-0.178;2023-07-02T06:28:39;100723.94;;;18.06;65.48
43420;BME280;29017;51.514;-0.178;2023-07-02T06:31:06;100743.16;;;18.08;65.05
43420;BME280;29017;51.514;-0.178;2023-07-02T06:33:38;100744.81;;;18.16;64.91
43420;BME280;29017;51.514;-0.178;2023-07-02T06:36:06;100744.81;;;18.29;64.52
43420;BME280;29017;51.514;-0.178;2023-07-02T06:38:35;100750.16;;;18.35;64.86
43420;BME280;29017;51.514;-0.178;2023-07-02T06:41:03;100736.44;;;18.32;64.04
43420;BME280;29017;51.514;-0.178;2023-07-02T06:43:30;100746.66;;;18.35;64.53
43420;BME280;29017;51.514;-0.178;2023-07-02T06:45:58;100738.69;;;18.42;65.07
43420;BME280;29017;51.514;-0.178;2023-07-02T06:48:25;100740.72;;;18.46;63.67
43420;BME280;29017;51.514;-0.178;2023-07-02T06:50:53;100740.72;;;18.46;63.60
43420;BME280;29017;51.514;-0.178;2023-07-02T06:53:20;100741.34;;;18.48;63.43
43420;BME280;29017;51.514;-0.178;2023-07-02T06:55:47;100739.28;;;18.50;63.32
43420;BME280;29017;51.514;-0.178;2023-07-02T06:58:15;100739.69;;;18.47;63.76
43420;BME280;29017;51.514;-0.178;2023-07-02T07:00:43;100751.78;;;18.50;64.09
43420;BME280;29017;51.514;-0.178;2023-07-02T07:03:10;100751.78;;;18.50;63.76
43420;BME280;29017;51.514;-0.178;2023-07-02T07:05:38;100756.50;;;18.48;63.57
43420;BME280;29017;51.514;-0.178;2023-07-02T07:08:06;100750.34;;;18.47;62.78
43420;BME280;29017;51.514;-0.178;2023-07-02T07:10:33;100746.66;;;18.42;62.42
43420;BME280;29017;51.514;-0.178;2023-07-02T07:13:02;100752.00;;;18.42;63.05
43420;BME280;29017;51.514;-0.178;2023-07-02T07:15:32;100759.81;;;18.43;63.20
43420;BME280;29017;51.514;-0.178;2023-07-02T07:18:03;100762.22;;;18.45;63.12
43420;BME280;29017;51.514;-0.178;2023-07-02T07:20:31;100762.66;;;18.42;62.66
43420;BME280;29017;51.514;-0.178;2023-07-02T07:22:59;100762.47;;;18.43;62.50
43420;BME280;29017;51.514;-0.178;2023-07-02T07:25:29;100760.19;;;18.47;62.07
43420;BME280;29017;51.514;-0.178;2023-07-02T07:27:59;100762.25;;;18.51;62.13
43420;BME280;29017;51.514;-0.178;2023-07-02T07:30:27;100756.72;;;18.59;62.10
43420;BME280;29017;51.514;-0.178;2023-07-02T07:32:57;100763.31;;;18.63;61.88
43420;BME280;29017;51.514;-0.178;2023-07-02T07:35:25;100762.06;;;18.72;61.70
43420;BME280;29017;51.514;-0.178;2023-07-02T07:37:52;100760.59;;;18.83;61.51
43420;BME280;29017;51.514;-0.178;2023-07-02T07:40:20;100759.09;;;19.07;60.72
43420;BME280;29017;51.514;-0.178;2023-07-02T07:42:47;100761.88;;;19.45;58.87
43420;BME280;29017;51.514;-0.178;2023-07-02T07:45:15;100763.75;;;20.07;57.10
43420;BME280;29017;51.514;-0.178;2023-07-02T07:47:42;100770.34;;;21.22;53.34
43420;BME280;29017;51.514;-0.178;2023-07-02T07:50:10;100766.66;;;22.12;51.67
43420;BME280;29017;51.514;-0.178;2023-07-02T07:52:39;100757.56;;;22.25;49.95
43420;BME280;29017;51.514;-0.178;2023-07-02T07:55:08;100759.53;;;22.06;50.50
43420;BME280;29017;51.514;-0.178;2023-07-02T07:57:36;100757.94;;;21.87;50.13
43420;BME280;29017;51.514;-0.178;2023-07-02T08:00:05;100763.38;;;21.81;49.52
43420;BME280;29017;51.514;-0.178;2023-07-02T08:02:40;100753.50;;;21.81;50.56
43420;BME280;29017;51.514;-0.178;2023-07-02T08:05:08;100761.34;;;21.64;50.90
43420;BME280;29017;51.514;-0.178;2023-07-02T08:07:35;100752.75;;;21.44;51.28
43420;BME280;29017;51.514;-0.178;2023-07-02T08:10:03;100749.97;;;21.21;51.24
43420;BME280;29017;51.514;-0.178;2023-07-02T08:12:31;100761.22;;;21.05;51.75
43420;BME280;29017;51.514;-0.178;2023-07-02T08:14:58;100758.41;;;20.81;52.74
43420;BME280;29017;51.514;-0.178;2023-07-02T08:17:26;100756.88;;;20.67;53.13
43420;BME280;29017;51.514;-0.178;2023-07-02T08:19:53;100748.50;;;20.64;53.91
43420;BME280;29017;51.514;-0.178;2023-07-02T08:22:21;100752.91;;;20.76;52.79
43420;BME280;29017;51.514;-0.178;2023-07-02T08:24:49;100754.41;;;20.72;51.87
43420;BME280;29017;51.514;-0.178;2023-07-02T08:27:17;100750.50;;;20.68;52.07
43420;BME280;29017;51.514;-0.178;2023-07-02T08:29:47;100747.31;;;20.60;51.06
43420;BME280;29017;51.514;-0.178;2023-07-02T08:32:15;100748.94;;;20.61;50.45
43420;BME280;29017;51.514;-0.178;2023-07-02T08:34:43;100746.88;;;20.81;50.28
43420;BME280;29017;51.514;-0.178;2023-07-02T08:37:10;100747.97;;;21.16;50.85
43420;BME280;29017;51.514;-0.178;2023-07-02T08:39:39;100741.34;;;21.49;50.17
43420;BME280;29017;51.514;-0.178;2023-07-02T08:42:07;100748.88;;;21.58;50.36
43420;BME280;29017;51.514;-0.178;2023-07-02T08:44:34;100742.84;;;21.45;49.38
43420;BME280;29017;51.514;-0.178;2023-07-02T08:47:04;100743.41;;;21.35;48.91
43420;BME280;29017;51.514;-0.178;2023-07-02T08:49:33;100746.69;;;21.19;49.16
43420;BME280;29017;51.514;-0.178;2023-07-02T08:52:00;100737.09;;;21.11;50.39
43420;BME280;29017;51.514;-0.178;2023-07-02T08:54:28;100743.53;;;21.04;50.38
43420;BME280;29017;51.514;-0.178;2023-07-02T08:56:56;100744.66;;;20.96;50.89
43420;BME280;29017;51.514;-0.178;2023-07-02T08:59:23;100743.25;;;20.93;51.06
43420;BME280;29017;51.514;-0.178;2023-07-02T09:01:53;100748.22;;;20.90;52.19
43420;BME280;29017;51.514;-0.178;2023-07-02T09:04:22;100737.75;;;20.88;51.51
43420;BME280;29017;51.514;-0.178;2023-07-02T09:09:31;100743.03;;;20.77;51.74
43420;BME280;29017;51.514;-0.178;2023-07-02T09:11:59;100757.50;;;20.69;49.46
43420;BME280;29017;51.514;-0.178;2023-07-02T09:14:30;100744.84;;;20.58;48.64
43420;BME280;29017;51.514;-0.178;2023-07-02T09:17:02;100748.53;;;20.39;49.56
43420;BME280;29017;51.514;-0.178;2023-07-02T09:19:30;100748.97;;;20.29;50.34
43420;BME280;29017;51.514;-0.178;2023-07-02T09:21:59;100752.16;;;20.20;52.25
43420;BME280;29017;51.514;-0.178;2023-07-02T09:24:29;100747.47;;;20.15;50.49
43420;BME280;29017;51.514;-0.178;2023-07-02T09:26:59;100744.34;;;20.18;50.93
43420;BME280;29017;51.514;-0.178;2023-07-02T09:29:30;100737.69;;;20.27;51.31
43420;BME280;29017;51.514;-0.178;2023-07-02T09:34:34;100745.34;;;20.48;50.02
43420;BME280;29017;51.514;-0.178;2023-07-02T09:37:03;100747.16;;;20.55;49.22
43420;BME280;29017;51.514;-0.178;2023-07-02T09:39:33;100748.63;;;20.51;49.45
43420;BME280;29017;51.514;-0.178;2023-07-02T09:42:05;100735.69;;;20.47;50.18
43420;BME280;29017;51.514;-0.178;2023-07-02T09:44:34;100746.38;;;20.47;47.73
43420;BME280;29017;51.514;-0.178;2023-07-02T09:47:04;100748.63;;;20.51;47.91
43420;BME280;29017;51.514;-0.178;2023-07-02T09:49:34;100746.16;;;20.49;48.69
43420;BME280;29017;51.514;-0.178;2023-07-02T09:52:05;100734.28;;;20.45;50.01
43420;BME280;29017;51.514;-0.178;2023-07-02T09:54:33;100745.19;;;20.43;50.05
43420;BME280;29017;51.514;-0.178;2023-07-02T09:57:01;100749.13;;;20.41;50.45
43420;BME280;29017;51.514;-0.178;2023-07-02T09:59:29;100741.38;;;20.33;50.68
43420;BME280;29017;51.514;-0.178;2023-07-02T10:01:57;100742.81;;;20.29;50.98
43420;BME280;29017;51.514;-0.178;2023-07-02T10:04:25;100742.19;;;20.27;51.37
43420;BME280;29017;51.514;-0.178;2023-07-02T10:06:54;100744.88;;;20.27;52.31
43420;BME280;29017;51.514;-0.178;2023-07-02T10:09:44;100742.66;;;20.24;51.31
43420;BME280;29017;51.514;-0.178;2023-07-02T10:14:53;100736.25;;;20.31;51.74
43420;BME280;29017;51.514;-0.178;2023-07-02T10:20:05;100736.78;;;20.40;50.89
43420;BME280;29017;51.514;-0.178;2023-07-02T10:22:43;100732.63;;;20.44;50.73
43420;BME280;29017;51.514;-0.178;2023-07-02T10:25:11;100733.97;;;20.53;50.99
43420;BME280;29017;51.514;-0.178;2023-07-02T10:27:40;100727.16;;;20.57;50.10
43420;BME280;29017;51.514;-0.178;2023-07-02T10:30:10;100737.47;;;20.54;49.36
43420;BME280;29017;51.514;-0.178;2023-07-02T10:32:38;100734.84;;;20.47;49.71
43420;BME280;29017;51.514;-0.178;2023-07-02T10:35:16;100738.59;;;20.46;50.62
43420;BME280;29017;51.514;-0.178;2023-07-02T10:37:44;100740.22;;;20.47;49.91
43420;BME280;29017;51.514;-0.178;2023-07-02T10:40:12;100737.78;;;20.45;50.13
43420;BME280;29017;51.514;-0.178;2023-07-02T10:42:48;100732.78;;;20.49;49.88
43420;BME280;29017;51.514;-0.178;2023-07-02T10:45:17;100733.97;;;20.53;49.78
43420;BME280;29017;51.514;-0.178;2023-07-02T10:47:45;100736.50;;;20.48;48.75
43420;BME280;29017;51.514;-0.178;2023-07-02T10:52:43;100753.81;;;20.45;49.37
43420;BME280;29017;51.514;-0.178;2023-07-02T10:55:16;100759.97;;;20.46;49.87
43420;BME280;29017;51.514;-0.178;2023-07-02T10:57:45;100749.28;;;20.46;49.73
43420;BME280;29017;51.514;-0.178;2023-07-02T11:00:13;100746.78;;;20.51;49.91
43420;BME280;29017;51.514;-0.178;2023-07-02T11:02:41;100743.44;;;20.56;49.00
43420;BME280;29017;51.514;-0.178;2023-07-02T11:05:09;100744.63;;;20.60;48.95
43420;BME280;29017;51.514;-0.178;2023-07-02T11:07:40;100737.94;;;20.69;49.65
43420;BME280;29017;51.514;-0.178;2023-07-02T11:10:09;100739.81;;;20.68;47.93
43420;BME280;29017;51.514;-0.178;2023-07-02T11:12:37;100732.22;;;20.65;48.74
43420;BME280;29017;51.514;-0.178;2023-07-02T11:15:14;100740.84;;;20.67;48.88
43420;BME280;29017;51.514;-0.178;2023-07-02T11:17:42;100737.13;;;20.68;50.17
43420;BME280;29017;51.514;-0.178;2023-07-02T11:20:11;100742.25;;;20.70;48.56
43420;BME280;29017;51.514;-0.178;2023-07-02T11:22:39;100726.69;;;20.67;47.51
43420;BME280;29017;51.514;-0.178;2023-07-02T11:25:12;100723.34;;;20.71;47.63
43420;BME280;29017;51.514;-0.178;2023-07-02T11:27:40;100721.84;;;20.75;47.62
43420;BME280;29017;51.514;-0.178;2023-07-02T11:30:08;100722.22;;;20.79;47.10
43420;BME280;29017;51.514;-0.178;2023-07-02T11:32:46;100733.06;;;20.84;47.60
43420;BME280;29017;51.514;-0.178;2023-07-02T11:35:15;100737.53;;;20.90;48.75
43420;BME280;29017;51.514;-0.178;2023-07-02T11:37:43;100730.69;;;20.94;47.25
43420;BME280;29017;51.514;-0.178;2023-07-02T11:40:12;100731.06;;;20.98;47.90
43420;BME280;29017;51.514;-0.178;2023-07-02T11:42:40;100736.44;;;20.98;46.23
43420;BME280;29017;51.514;-0.178;2023-07-02T11:45:08;100725.47;;;20.99;46.89
43420;BME280;29017;51.514;-0.178;2023-07-02T11:47:38;100715.22;;;20.96;44.67
43420;BME280;29017;51.514;-0.178;2023-07-02T11:50:06;100725.78;;;20.91;45.63
43420;BME280;29017;51.514;-0.178;2023-07-02T11:52:51;100731.13;;;20.91;46.41
43420;BME280;29017;51.514;-0.178;2023-07-02T11:55:19;100724.28;;;20.95;46.24
43420;BME280;29017;51.514;-0.178;2023-07-02T11:57:46;100731.06;;;20.98;46.99
43420;BME280;29017;51.514;-0.178;2023-07-02T12:00:16;100726.75;;;20.97;47.12
43420;BME280;29017;51.514;-0.178;2023-07-02T12:02:44;100720.13;;;20.99;46.07
43420;BME280;29017;51.514;-0.178;2023-07-02T12:05:11;100726.66;;;21.03;45.22
43420;BME280;29017;51.514;-0.178;2023-07-02T12:07:39;100718.47;;;20.98;45.28
43420;BME280;29017;51.514;-0.178;2023-07-02T12:10:07;100731.34;;;20.89;45.29
43420;BME280;29017;51.514;-0.178;2023-07-02T12:12:35;100718.50;;;20.80;45.18
43420;BME280;29017;51.514;-0.178;2023-07-02T12:15:03;100723.03;;;20.79;46.18
43420;BME280;29017;51.514;-0.178;2023-07-02T12:17:30;100726.06;;;20.83;45.78
43420;BME280;29017;51.514;-0.178;2023-07-02T12:19:58;100716.78;;;20.85;45.77
43420;BME280;29017;51.514;-0.178;2023-07-02T12:22:25;100727.03;;;20.88;45.85
43420;BME280;29017;51.514;-0.178;2023-07-02T12:24:53;100726.75;;;20.97;46.37
43420;BME280;29017;51.514;-0.178;2023-07-02T12:27:23;100711.00;;;21.07;46.11
43420;BME280;29017;51.514;-0.178;2023-07-02T12:29:52;100722.06;;;21.10;46.00
43420;BME280;29017;51.514;-0.178;2023-07-02T12:32:20;100721.84;;;21.12;45.83
43420;BME280;29017;51.514;-0.178;2023-07-02T12:34:48;100725.34;;;21.12;45.07
43420;BME280;29017;51.514;-0.178;2023-07-02T12:37:15;100725.28;;;21.19;44.09
43420;BME280;29017;51.514;-0.178;2023-07-02T12:39:44;100715.78;;;21.23;44.50
43420;BME280;29017;51.514;-0.178;2023-07-02T12:42:12;100708.25;;;21.31;44.31
43420;BME280;29017;51.514;-0.178;2023-07-02T12:44:40;100713.28;;;21.40;45.26
43420;BME280;29017;51.514;-0.178;2023-07-02T12:47:07;100712.50;;;21.51;43.08
43420;BME280;29017;51.514;-0.178;2023-07-02T12:49:35;100722.44;;;21.62;43.03
43420;BME280;29017;51.514;-0.178;2023-07-02T12:52:03;100704.19;;;21.70;43.73
43420;BME280;29017;51.514;-0.178;2023-07-02T12:54:31;100716.56;;;21.83;44.00
43420;BME280;29017;51.514;-0.178;2023-07-02T12:56:58;100707.16;;;21.92;44.24
43420;BME280;29017;51.514;-0.178;2023-07-02T12:59:26;100711.03;;;21.96;43.54